createdAt,value
2023-04-27T00:00:27.235Z,50300.79
2023-04-27T00:03:14.900Z,50299.99
2023-04-27T00:05:44.347Z,50311.98
2023-04-27T00:08:12.741Z,50286.79
2023-04-27T00:10:42.038Z,50291.99
2023-04-27T00:13:10.190Z,50311.59
2023-04-27T00:15:38.932Z,50303.19
2023-04-27T00:18:07.201Z,50300.79
2023-04-27T00:20:35.917Z,50293.99
2023-04-27T00:23:04.243Z,50297.99
2023-04-27T00:25:32.499Z,50292.79
2023-04-27T00:28:00.782Z,50291.20
2023-04-27T00:30:29.092Z,50309.99
2023-04-27T00:32:57.266Z,50309.19
2023-04-27T00:35:25.647Z,50307.19
2023-04-27T00:37:55.226Z,50304.39
2023-04-27T00:40:23.583Z,50299.99
2023-04-27T00:42:51.819Z,50298.39
2023-04-27T00:45:20.173Z,50318.79
2023-04-27T00:47:48.524Z,50290.39
2023-04-27T00:50:19.400Z,50286.39
2023-04-27T00:52:47.819Z,50286.39
2023-04-27T00:55:17.438Z,50297.99
2023-04-27T00:57:45.746Z,50293.99
2023-04-27T01:00:14.674Z,50296.39
2023-04-27T01:02:43.104Z,50293.20
2023-04-27T01:05:12.730Z,50282.80
2023-04-27T01:07:41.924Z,50290.79
2023-04-27T01:10:10.611Z,50287.59
2023-04-27T01:12:38.808Z,50286.00
2023-04-27T01:15:08.045Z,50294.39
2023-04-27T01:17:36.682Z,50298.39
2023-04-27T01:20:10.976Z,50280.80
2023-04-27T01:22:39.939Z,50292.39
2023-04-27T01:25:08.583Z,50296.79
2023-04-27T01:27:36.754Z,50309.19
2023-04-27T01:30:06.564Z,50307.19
2023-04-27T01:32:38.204Z,50296.39
2023-04-27T01:35:07.531Z,50285.20
2023-04-27T01:37:36.234Z,50289.20
2023-04-27T01:40:07.574Z,50295.20
2023-04-27T01:42:35.851Z,50294.79
2023-04-27T01:45:06.037Z,50297.59
2023-04-27T01:47:34.263Z,50307.99
2023-04-27T01:50:04.172Z,50311.19
2023-04-27T01:52:32.366Z,50300.39
2023-04-27T01:55:00.622Z,50297.99
2023-04-27T01:57:28.927Z,50296.79
2023-04-27T01:59:57.200Z,50301.59
2023-04-27T02:02:25.548Z,50305.99
2023-04-27T02:04:54.107Z,50297.99
2023-04-27T02:07:22.376Z,50311.19
2023-04-27T02:09:51.096Z,50307.19
2023-04-27T02:12:19.284Z,50298.79
2023-04-27T02:14:48.466Z,50297.99
2023-04-27T02:17:16.795Z,50303.59
2023-04-27T02:19:45.138Z,50309.19
2023-04-27T02:22:13.408Z,50287.20
2023-04-27T02:24:42.114Z,50312.79
2023-04-27T02:27:10.325Z,50314.39
2023-04-27T02:29:39.393Z,50298.79
2023-04-27T02:32:08.222Z,50302.79
2023-04-27T02:34:36.433Z,50306.39
2023-04-27T02:37:05.519Z,50322.79
2023-04-27T02:39:34.651Z,50309.99
2023-04-27T02:42:03.709Z,50315.98
2023-04-27T02:44:31.931Z,50316.39
2023-04-27T02:47:00.333Z,50312.79
2023-04-27T02:49:30.026Z,50319.18
2023-04-27T02:51:58.309Z,50331.18
2023-04-27T02:54:27.471Z,50292.79
2023-04-27T02:56:55.800Z,50322.79
2023-04-27T02:59:24.288Z,50326.38
2023-04-27T03:01:52.740Z,50335.57
2023-04-27T03:04:21.263Z,50315.59
2023-04-27T03:06:50.112Z,50327.18
2023-04-27T03:09:18.463Z,50329.58
2023-04-27T03:11:46.669Z,50335.57
2023-04-27T03:14:14.928Z,50322.38
2023-04-27T03:16:44.875Z,50326.78
2023-04-27T03:19:15.008Z,50333.18
2023-04-27T03:21:43.489Z,50342.77
2023-04-27T03:24:11.912Z,50333.98
2023-04-27T03:26:40.139Z,50335.18
2023-04-27T03:29:08.966Z,50336.78
2023-04-27T03:31:37.631Z,50347.57
2023-04-27T03:34:05.978Z,50340.78
2023-04-27T03:36:34.243Z,50327.18
2023-04-27T03:39:03.346Z,50303.99
2023-04-27T03:41:31.533Z,50308.79
2023-04-27T03:43:59.728Z,50330.78
2023-04-27T03:46:28.135Z,50327.18
2023-04-27T03:48:56.509Z,50331.98
2023-04-27T03:51:24.953Z,50315.59
2023-04-27T03:53:53.213Z,50321.18
2023-04-27T03:56:21.672Z,50324.78
2023-04-27T03:58:49.962Z,50338.77
2023-04-27T04:01:22.055Z,50326.38
2023-04-27T04:03:51.765Z,50322.38
2023-04-27T04:06:20.915Z,50306.79
2023-04-27T04:08:51.671Z,50323.18
2023-04-27T04:11:19.920Z,50321.18
2023-04-27T04:13:48.191Z,50297.59
2023-04-27T04:16:16.680Z,50308.79
2023-04-27T04:18:45.012Z,50318.38
2023-04-27T04:21:13.200Z,50318.38
2023-04-27T04:23:41.534Z,50313.19
2023-04-27T04:26:10.131Z,50311.59
2023-04-27T04:28:39.085Z,50301.19
2023-04-27T04:31:10.200Z,50303.59
2023-04-27T04:33:38.700Z,50299.99
2023-04-27T04:36:08.393Z,50307.19
2023-04-27T04:38:38.310Z,50302.39
2023-04-27T04:41:07.596Z,50298.39
2023-04-27T04:43:35.996Z,50307.59
2023-04-27T04:46:06.726Z,50302.79
2023-04-27T04:48:35.887Z,50289.60
2023-04-27T04:51:07.361Z,50290.79
2023-04-27T04:53:37.551Z,50303.19
2023-04-27T04:56:14.985Z,50298.79
2023-04-27T04:58:44.009Z,50298.79
2023-04-27T05:01:14.649Z,50283.20
2023-04-27T05:03:44.306Z,50291.20
2023-04-27T05:06:13.068Z,50281.20
2023-04-27T05:08:41.510Z,50304.39
2023-04-27T05:11:09.775Z,50305.19
2023-04-27T05:13:39.065Z,50278.39
2023-04-27T05:16:08.120Z,50294.79
2023-04-27T05:18:36.709Z,50299.59
2023-04-27T05:21:05.544Z,50293.59
2023-04-27T05:23:33.826Z,50281.20
2023-04-27T05:26:11.237Z,50281.20
2023-04-27T05:28:39.535Z,50299.99
2023-04-27T05:31:08.505Z,50264.40
2023-04-27T05:33:36.930Z,50274.39
2023-04-27T05:36:06.709Z,50277.20
2023-04-27T05:38:37.665Z,50290.39
2023-04-27T05:41:06.914Z,50275.20
2023-04-27T05:43:35.621Z,50268.40
2023-04-27T05:46:06.191Z,50262.80
2023-04-27T05:48:34.486Z,50255.20
2023-04-27T05:51:04.058Z,50266.40
2023-04-27T05:53:35.948Z,50265.20
2023-04-27T05:56:06.961Z,50240.41
2023-04-27T05:58:35.331Z,50263.20
2023-04-27T06:01:04.232Z,50253.61
2023-04-27T06:03:35.731Z,50257.21
2023-04-27T06:06:06.897Z,50252.41
2023-04-27T06:08:39.615Z,50254.80
2023-04-27T06:11:09.323Z,50253.61
2023-04-27T06:13:37.546Z,50224.01
2023-04-27T06:16:06.661Z,50237.61
2023-04-27T06:18:35.206Z,50242.41
2023-04-27T06:21:03.519Z,50236.02
2023-04-27T06:23:32.427Z,50264.40
2023-04-27T06:26:02.832Z,50242.01
2023-04-27T06:28:32.167Z,50232.81
2023-04-27T06:31:00.484Z,50251.20
2023-04-27T06:33:29.931Z,50248.41
2023-04-27T06:35:58.610Z,50238.81
2023-04-27T06:38:26.896Z,50235.21
2023-04-27T06:40:55.504Z,50248.01
2023-04-27T06:43:24.109Z,50256.40
2023-04-27T06:45:53.191Z,50240.81
2023-04-27T06:48:21.669Z,50240.81
2023-04-27T06:50:49.967Z,50246.80
2023-04-27T06:53:18.393Z,50234.01
2023-04-27T06:55:48.528Z,50230.81
2023-04-27T06:58:17.127Z,50227.21
2023-04-27T07:00:45.440Z,50238.81
2023-04-27T07:03:14.880Z,50241.21
2023-04-27T07:05:43.418Z,50220.02
2023-04-27T07:08:13.094Z,50223.22
2023-04-27T07:10:41.853Z,50242.01
2023-04-27T07:13:11.286Z,50236.01
2023-04-27T07:15:43.510Z,50234.81
2023-04-27T07:18:12.384Z,50220.02
2023-04-27T07:20:42.724Z,50224.41
2023-04-27T07:23:13.449Z,50233.61
2023-04-27T07:25:42.243Z,50234.01
2023-04-27T07:28:11.529Z,50248.80
2023-04-27T07:30:41.335Z,50226.02
2023-04-27T07:33:10.173Z,50234.41
2023-04-27T07:35:39.824Z,50239.61
2023-04-27T07:38:08.597Z,50222.02
2023-04-27T07:40:37.670Z,50233.61
2023-04-27T07:43:06.524Z,50227.21
2023-04-27T07:45:37.441Z,50224.82
2023-04-27T07:48:06.510Z,50222.41
2023-04-27T07:50:34.900Z,50217.62
2023-04-27T07:53:03.475Z,50226.42
2023-04-27T07:55:31.690Z,50200.02
2023-04-27T07:57:59.943Z,50216.42
2023-04-27T08:00:28.467Z,50210.82
2023-04-27T08:02:57.048Z,50212.02
2023-04-27T08:05:27.380Z,50205.22
2023-04-27T08:07:56.539Z,50209.62
2023-04-27T08:10:25.955Z,50226.01
2023-04-27T08:12:54.225Z,50209.62
2023-04-27T08:15:22.467Z,50216.42
2023-04-27T08:17:50.761Z,50207.22
2023-04-27T08:20:19.268Z,50196.43
2023-04-27T08:22:47.675Z,50193.63
2023-04-27T08:25:16.066Z,50185.63
2023-04-27T08:27:44.464Z,50199.63
2023-04-27T08:30:13.345Z,50204.02
2023-04-27T08:32:45.260Z,50194.82
2023-04-27T08:35:15.175Z,50190.43
2023-04-27T08:37:44.387Z,50188.03
2023-04-27T08:40:13.313Z,50182.83
2023-04-27T08:42:57.868Z,50200.82
2023-04-27T08:45:27.506Z,50179.23
2023-04-27T08:47:55.889Z,50174.04
2023-04-27T08:50:24.656Z,50196.02
2023-04-27T08:52:53.509Z,50190.03
2023-04-27T08:55:24.623Z,50178.83
2023-04-27T08:58:00.520Z,50186.03
2023-04-27T09:00:42.241Z,50156.84
2023-04-27T09:03:25.533Z,50174.04
2023-04-27T09:06:04.324Z,50182.03
2023-04-27T09:08:48.434Z,50166.84
2023-04-27T09:11:29.696Z,50177.23
2023-04-27T09:14:00.924Z,50190.43
2023-04-27T09:16:31.304Z,50172.03
2023-04-27T09:19:00.450Z,50173.23
2023-04-27T09:21:34.615Z,50176.83
2023-04-27T09:24:13.966Z,50169.63
2023-04-27T09:26:43.233Z,50173.24
2023-04-27T09:29:12.174Z,50163.24
2023-04-27T09:31:40.798Z,50156.04
2023-04-27T09:34:09.079Z,50162.44
2023-04-27T09:36:38.130Z,50153.24
2023-04-27T09:39:08.186Z,50152.04
2023-04-27T09:41:37.238Z,50170.04
2023-04-27T09:44:07.807Z,50146.04
2023-04-27T09:46:36.223Z,50162.44
2023-04-27T09:49:06.028Z,50159.64
2023-04-27T09:51:34.417Z,50154.84
2023-04-27T09:54:05.254Z,50162.44
2023-04-27T09:57:03.904Z,50166.84
2023-04-27T10:00:00.637Z,50176.04
2023-04-27T10:02:50.091Z,50161.24
2023-04-27T10:05:34.636Z,50164.04
2023-04-27T10:08:05.441Z,50167.23
2023-04-27T10:10:44.178Z,50170.84
2023-04-27T10:13:22.023Z,50158.44
2023-04-27T10:15:51.670Z,50169.63
2023-04-27T10:18:32.347Z,50186.02
2023-04-27T10:21:11.927Z,50181.23
2023-04-27T10:23:51.998Z,50150.84
2023-04-27T10:26:28.243Z,50173.63
2023-04-27T10:29:07.921Z,50148.84
2023-04-27T10:31:43.379Z,50160.44
2023-04-27T10:34:19.144Z,50145.25
2023-04-27T10:36:50.147Z,50146.84
2023-04-27T10:39:36.191Z,50145.64
2023-04-27T10:42:14.626Z,50160.84
2023-04-27T10:44:42.892Z,50145.24
2023-04-27T10:47:16.992Z,50168.84
2023-04-27T10:49:45.750Z,50150.84
2023-04-27T10:52:17.081Z,50148.44
2023-04-27T10:54:48.734Z,50142.84
2023-04-27T10:57:20.737Z,50157.64
2023-04-27T10:59:52.080Z,50136.84
2023-04-27T11:02:29.751Z,50151.24
2023-04-27T11:04:59.000Z,50150.45
2023-04-27T11:07:29.302Z,50159.24
2023-04-27T11:09:57.572Z,50152.44
2023-04-27T11:12:25.920Z,50140.84
2023-04-27T11:15:00.416Z,50138.45
2023-04-27T11:17:30.088Z,50160.44
2023-04-27T11:19:58.714Z,50144.84
2023-04-27T11:22:27.763Z,50148.45
2023-04-27T11:24:58.153Z,50158.44
2023-04-27T11:27:37.842Z,50148.44
2023-04-27T11:30:08.085Z,50166.44
2023-04-27T11:32:37.266Z,50141.24
2023-04-27T11:35:06.391Z,50148.04
2023-04-27T11:37:35.098Z,50152.44
2023-04-27T11:40:05.215Z,50142.05
2023-04-27T11:42:34.299Z,50142.04
2023-04-27T11:45:06.638Z,50140.84
2023-04-27T11:47:36.249Z,50133.25
2023-04-27T11:50:08.942Z,50139.64
2023-04-27T11:52:40.315Z,50129.65
2023-04-27T11:55:15.983Z,50139.64
2023-04-27T11:57:44.415Z,50136.84
2023-04-27T12:00:15.286Z,50138.84
2023-04-27T12:02:44.555Z,50137.64
2023-04-27T12:05:14.457Z,50128.84
2023-04-27T12:07:43.580Z,50145.64
2023-04-27T12:10:12.877Z,50130.85
2023-04-27T12:12:41.324Z,50140.45
2023-04-27T12:15:10.566Z,50136.45
2023-04-27T12:17:40.116Z,50127.65
2023-04-27T12:20:09.308Z,50135.64
2023-04-27T12:22:38.761Z,50123.65
2023-04-27T12:25:07.850Z,50132.04
2023-04-27T12:27:36.069Z,50136.05
2023-04-27T12:30:04.990Z,50132.45
2023-04-27T12:32:34.243Z,50145.64
2023-04-27T12:35:04.113Z,50145.64
2023-04-27T12:37:33.633Z,50126.05
2023-04-27T12:40:06.135Z,50142.45
2023-04-27T12:42:34.710Z,50129.25
2023-04-27T12:45:05.058Z,50145.64
2023-04-27T12:50:06.951Z,50141.64
2023-04-27T12:52:35.713Z,50130.85
2023-04-27T12:55:06.223Z,50158.04
2023-04-27T12:57:37.451Z,50119.65
2023-04-27T13:00:11.525Z,50114.85
2023-04-27T13:02:45.151Z,50158.84
2023-04-27T13:05:13.695Z,50129.65
2023-04-27T13:07:42.100Z,50140.85
2023-04-27T13:10:14.993Z,50151.64
2023-04-27T13:12:43.450Z,50133.25
2023-04-27T13:15:18.662Z,50146.04
2023-04-27T13:17:48.020Z,50131.25
2023-04-27T13:20:19.539Z,50133.25
2023-04-27T13:22:48.550Z,50134.84
2023-04-27T13:25:19.978Z,50126.45
2023-04-27T13:27:51.798Z,50136.04
2023-04-27T13:30:20.254Z,50143.24
2023-04-27T13:32:48.523Z,50131.65
2023-04-27T13:35:16.833Z,50131.25
2023-04-27T13:37:45.663Z,50131.25
2023-04-27T13:40:14.014Z,50119.25
2023-04-27T13:42:42.394Z,50125.65
2023-04-27T13:45:11.770Z,50133.24
2023-04-27T13:47:40.512Z,50122.45
2023-04-27T13:50:12.482Z,50130.45
2023-04-27T13:52:40.715Z,50132.85
2023-04-27T13:55:11.316Z,50110.46
2023-04-27T13:57:39.606Z,50114.46
2023-04-27T14:00:11.504Z,50126.45
2023-04-27T14:02:42.428Z,50122.45
2023-04-27T14:05:11.429Z,50136.04
2023-04-27T14:07:40.876Z,50117.25
2023-04-27T14:10:09.545Z,50120.45
2023-04-27T14:12:39.450Z,50130.85
2023-04-27T14:15:08.462Z,50114.05
2023-04-27T14:17:36.933Z,50118.45
2023-04-27T14:20:07.101Z,50132.85
2023-04-27T14:22:36.427Z,50130.05
2023-04-27T14:25:05.010Z,50132.45
2023-04-27T14:27:34.605Z,50130.05
2023-04-27T14:30:03.805Z,50137.24
2023-04-27T14:32:32.165Z,50136.45
2023-04-27T14:35:00.782Z,50116.05
2023-04-27T14:37:30.444Z,50148.84
2023-04-27T14:39:58.621Z,50129.65
2023-04-27T14:42:26.954Z,50132.05
2023-04-27T14:44:57.492Z,50122.85
2023-04-27T14:47:26.132Z,50136.85
2023-04-27T14:49:54.599Z,50142.04
2023-04-27T14:52:23.009Z,50124.05
2023-04-27T14:54:51.372Z,50137.25
2023-04-27T14:57:19.784Z,50132.84
2023-04-27T14:59:48.345Z,50135.65
2023-04-27T15:02:16.841Z,50138.05
2023-04-27T15:04:45.215Z,50111.65
2023-04-27T15:07:14.011Z,50116.86
2023-04-27T15:09:42.379Z,50112.45
2023-04-27T15:12:11.574Z,50111.26
2023-04-27T15:14:40.117Z,50115.65
2023-04-27T15:17:09.192Z,50110.46
2023-04-27T15:19:37.534Z,50109.26
2023-04-27T15:22:05.813Z,50114.05
2023-04-27T15:24:34.029Z,50112.45
2023-04-27T15:27:03.619Z,50129.65
2023-04-27T15:29:31.905Z,50118.85
2023-04-27T15:32:00.199Z,50127.25
2023-04-27T15:34:30.595Z,50132.45
2023-04-27T15:36:59.048Z,50126.05
2023-04-27T15:39:28.444Z,50130.05
2023-04-27T15:41:58.522Z,50126.45
2023-04-27T15:44:27.307Z,50135.25
2023-04-27T15:46:55.644Z,50125.25
2023-04-27T15:49:23.894Z,50132.85
2023-04-27T15:51:52.270Z,50124.85
2023-04-27T15:54:20.513Z,50116.45
2023-04-27T15:56:48.756Z,50125.25
2023-04-27T15:59:18.410Z,50130.85
2023-04-27T16:01:46.872Z,50127.65
2023-04-27T16:04:15.386Z,50128.85
2023-04-27T16:06:44.245Z,50138.04
2023-04-27T16:09:13.705Z,50126.85
2023-04-27T16:11:45.557Z,50134.84
2023-04-27T16:14:15.327Z,50126.85
2023-04-27T16:16:43.961Z,50131.25
2023-04-27T16:19:16.737Z,50126.85
2023-04-27T16:21:45.822Z,50135.65
2023-04-27T16:24:16.453Z,50150.84
2023-04-27T16:26:45.157Z,50161.24
2023-04-27T16:29:16.738Z,50163.64
2023-04-27T16:31:50.139Z,50163.24
2023-04-27T16:34:18.393Z,50173.63
2023-04-27T16:36:48.720Z,50188.82
2023-04-27T16:39:20.752Z,50178.43
2023-04-27T16:41:49.742Z,50193.23
2023-04-27T16:44:17.998Z,50172.03
2023-04-27T16:46:47.591Z,50193.63
2023-04-27T16:49:18.305Z,50184.03
2023-04-27T16:51:49.428Z,50183.63
2023-04-27T16:54:18.107Z,50189.23
2023-04-27T16:56:50.376Z,50196.83
2023-04-27T16:59:18.791Z,50201.22
2023-04-27T17:01:47.321Z,50191.63
2023-04-27T17:04:16.049Z,50204.42
2023-04-27T17:06:47.196Z,50207.62
2023-04-27T17:09:16.426Z,50200.42
2023-04-27T17:11:44.895Z,50202.02
2023-04-27T17:14:14.403Z,50213.22
2023-04-27T17:16:42.605Z,50214.82
2023-04-27T17:19:13.416Z,50202.02
2023-04-27T17:21:42.549Z,50205.63
2023-04-27T17:24:11.759Z,50198.82
2023-04-27T17:26:40.189Z,50229.21
2023-04-27T17:29:09.677Z,50213.62
2023-04-27T17:31:37.924Z,50212.02
2023-04-27T17:34:06.739Z,50214.42
2023-04-27T17:36:38.085Z,50208.02
2023-04-27T17:39:09.508Z,50206.42
2023-04-27T17:41:38.442Z,50212.42
2023-04-27T17:44:12.333Z,50202.82
2023-04-27T17:46:51.986Z,50214.82
2023-04-27T17:49:21.505Z,50219.62
2023-04-27T17:51:52.688Z,50216.42
2023-04-27T17:54:23.709Z,50220.82
2023-04-27T17:56:52.032Z,50206.82
2023-04-27T17:59:20.666Z,50232.41
2023-04-27T18:01:49.065Z,50230.01
2023-04-27T18:04:17.414Z,50219.62
2023-04-27T18:06:46.612Z,50221.21
2023-04-27T18:09:15.051Z,50232.81
2023-04-27T18:11:43.978Z,50231.61
2023-04-27T18:14:12.448Z,50210.42
2023-04-27T18:16:40.891Z,50227.21
2023-04-27T18:19:10.461Z,50223.21
2023-04-27T18:21:38.759Z,50222.02
2023-04-27T18:24:08.386Z,50240.41
2023-04-27T18:26:37.014Z,50233.21
2023-04-27T18:29:05.468Z,50234.81
2023-04-27T18:31:35.250Z,50232.01
2023-04-27T18:34:03.675Z,50217.22
2023-04-27T18:36:32.518Z,50232.41
2023-04-27T18:39:00.958Z,50224.81
2023-04-27T18:41:29.305Z,50236.41
2023-04-27T18:44:05.901Z,50234.01
2023-04-27T18:46:34.912Z,50219.61
2023-04-27T18:49:03.318Z,50240.01
2023-04-27T18:51:32.434Z,50203.62
2023-04-27T18:54:00.814Z,50227.21
2023-04-27T18:56:29.129Z,50226.41
2023-04-27T18:58:58.114Z,50238.41
2023-04-27T19:01:30.314Z,50229.21
2023-04-27T19:03:59.606Z,50243.61
2023-04-27T19:06:28.117Z,50234.81
2023-04-27T19:08:56.729Z,50247.61
2023-04-27T19:11:25.689Z,50242.81
2023-04-27T19:13:54.572Z,50216.02
2023-04-27T19:16:24.552Z,50242.41
2023-04-27T19:18:52.969Z,50242.41
2023-04-27T19:21:21.201Z,50238.81
2023-04-27T19:23:49.635Z,50238.81
2023-04-27T19:26:17.843Z,50232.41
2023-04-27T19:28:46.617Z,50250.80
2023-04-27T19:31:14.920Z,50234.81
2023-04-27T19:36:14.345Z,50250.01
2023-04-27T19:38:42.511Z,50232.41
2023-04-27T19:41:14.244Z,50243.21
2023-04-27T19:43:42.583Z,50239.21
2023-04-27T19:46:10.982Z,50224.01
2023-04-27T19:48:39.315Z,50227.62
2023-04-27T19:51:11.152Z,50240.01
2023-04-27T19:53:39.535Z,50242.41
2023-04-27T19:56:07.982Z,50247.61
2023-04-27T19:58:37.361Z,50243.61
2023-04-27T20:01:06.464Z,50240.41
2023-04-27T20:03:35.933Z,50249.61
2023-04-27T20:06:04.654Z,50244.01
2023-04-27T20:08:34.276Z,50248.01
2023-04-27T20:11:02.444Z,50262.80
2023-04-27T20:13:30.747Z,50245.21
2023-04-27T20:15:59.323Z,50246.80
2023-04-27T20:18:31.799Z,50264.40
2023-04-27T20:21:00.042Z,50243.21
2023-04-27T20:23:28.258Z,50244.81
2023-04-27T20:25:56.439Z,50242.01
2023-04-27T20:28:24.612Z,50244.01
2023-04-27T20:30:52.806Z,50260.01
2023-04-27T20:33:21.123Z,50259.61
2023-04-27T20:35:49.436Z,50257.21
2023-04-27T20:38:18.177Z,50262.80
2023-04-27T20:40:46.448Z,50252.01
2023-04-27T20:43:14.823Z,50250.80
2023-04-27T20:45:43.125Z,50254.01
2023-04-27T20:48:12.218Z,50254.80
2023-04-27T20:50:40.540Z,50265.60
2023-04-27T20:53:08.839Z,50260.80
2023-04-27T20:55:37.369Z,50260.01
2023-04-27T20:58:06.155Z,50274.40
2023-04-27T21:00:35.705Z,50260.01
2023-04-27T21:03:04.031Z,50262.00
2023-04-27T21:05:32.396Z,50268.01
2023-04-27T21:08:00.586Z,50281.60
2023-04-27T21:10:29.068Z,50271.20
2023-04-27T21:12:57.391Z,50265.21
2023-04-27T21:15:25.846Z,50260.41
2023-04-27T21:17:54.135Z,50281.60
2023-04-27T21:20:22.694Z,50270.40
2023-04-27T21:22:50.987Z,50286.39
2023-04-27T21:25:20.209Z,50271.60
2023-04-27T21:27:49.508Z,50272.80
2023-04-27T21:30:17.707Z,50274.00
2023-04-27T21:32:45.962Z,50283.99
2023-04-27T21:35:14.224Z,50274.40
2023-04-27T21:37:43.414Z,50285.20
2023-04-27T21:40:12.030Z,50297.99
2023-04-27T21:42:40.250Z,50292.39
2023-04-27T21:45:09.335Z,50291.20
2023-04-27T21:47:39.958Z,50287.99
2023-04-27T21:50:08.850Z,50277.60
2023-04-27T21:52:40.150Z,50293.99
2023-04-27T21:55:08.801Z,50291.99
2023-04-27T21:57:37.733Z,50309.59
2023-04-27T22:00:13.948Z,50294.79
2023-04-27T22:02:48.553Z,50299.19
2023-04-27T22:05:17.156Z,50291.99
2023-04-27T22:07:46.112Z,50294.39
2023-04-27T22:10:14.465Z,50297.59
2023-04-27T22:12:42.932Z,50290.80
2023-04-27T22:15:11.516Z,50295.99
2023-04-27T22:17:40.818Z,50308.39
2023-04-27T22:20:13.065Z,50297.99
2023-04-27T22:22:41.343Z,50292.39
2023-04-27T22:25:11.488Z,50289.99
2023-04-27T22:27:44.831Z,50289.99
2023-04-27T22:30:14.698Z,50295.99
2023-04-27T22:32:42.974Z,50305.99
2023-04-27T22:35:24.912Z,50307.99
2023-04-27T22:37:56.389Z,50298.39
2023-04-27T22:40:25.126Z,50319.98
2023-04-27T22:42:56.090Z,50318.38
2023-04-27T22:45:27.239Z,50311.19
2023-04-27T22:47:55.537Z,50318.78
2023-04-27T22:50:23.794Z,50313.18
2023-04-27T22:52:53.150Z,50317.18
2023-04-27T22:55:22.267Z,50330.38
2023-04-27T22:57:50.522Z,50325.18
2023-04-27T23:00:18.839Z,50313.99
2023-04-27T23:02:47.761Z,50320.39
2023-04-27T23:05:16.827Z,50325.98
2023-04-27T23:07:46.608Z,50315.19
2023-04-27T23:10:15.353Z,50298.39
2023-04-27T23:12:43.793Z,50339.58
2023-04-27T23:15:12.595Z,50306.39
2023-04-27T23:17:41.460Z,50330.38
2023-04-27T23:20:26.646Z,50321.18
2023-04-27T23:22:56.375Z,50328.78
2023-04-27T23:25:24.841Z,50319.19
2023-04-27T23:27:53.248Z,50303.99
2023-04-27T23:30:22.364Z,50335.98
2023-04-27T23:32:51.089Z,50322.38
2023-04-27T23:35:19.432Z,50338.77
2023-04-27T23:37:47.586Z,50332.78
2023-04-27T23:40:16.315Z,50335.18
2023-04-27T23:42:44.541Z,50322.78
2023-04-27T23:45:13.541Z,50313.98
2023-04-27T23:47:42.390Z,50327.18
2023-04-27T23:50:10.890Z,50333.58
2023-04-27T23:52:39.955Z,50327.18
2023-04-27T23:55:08.883Z,50320.38
2023-04-27T23:57:37.223Z,50333.58
